Lake Worth, Florida
Current Conditions -  °F | °C
As of 4:53 AM on Tuesday 21 Oct 2014 (Local Time) from KPBI Reporting Station
Overcast Overcast  
Wind Chill: 76°   Ceiling: 25000
Heat Index: 76°   Visibility: 10mi
Dew Point: 69°   Wind: 0mph
Humidity: 79%   Direction: NA
Pressure: 29.91"   Gusts: NA
Location:  26.62°N, 80.06°W
Report Text: KPBI 210853Z 00000KT 10SM FEW040 OVC250 24/21 A2991 RMK AO2 SLP127 T02440206 56012
Loading
Personal Weather Stations






























Interactive Weather Map New forecast layout! Learn more

10-Day Weather Forecast

Advertisements
Track Severe Weather on mobile